createdAt,value
2023-05-14T00:00:49.137Z,5.69
2023-05-14T00:03:16.154Z,5.70
2023-05-14T00:05:43.053Z,5.66
2023-05-14T00:08:09.836Z,5.64
2023-05-14T00:10:36.629Z,5.61
2023-05-14T00:13:03.356Z,5.56
2023-05-14T00:15:31.274Z,5.58
2023-05-14T00:17:59.089Z,5.64
2023-05-14T00:20:26.141Z,5.67
2023-05-14T00:22:52.932Z,5.66
2023-05-14T00:25:19.792Z,5.59
2023-05-14T00:27:46.661Z,5.54
2023-05-14T00:30:13.488Z,5.50
2023-05-14T00:32:40.365Z,5.47
2023-05-14T00:35:07.424Z,5.44
2023-05-14T00:37:34.148Z,5.41
2023-05-14T00:40:00.929Z,5.39
2023-05-14T00:42:27.982Z,5.36
2023-05-14T00:44:54.919Z,5.34
2023-05-14T00:47:22.457Z,5.32
2023-05-14T00:49:49.380Z,5.32
2023-05-14T00:52:17.217Z,5.30
2023-05-14T00:54:47.300Z,5.28
2023-05-14T00:57:14.178Z,5.27
2023-05-14T00:59:42.694Z,5.23
2023-05-14T01:02:09.698Z,5.21
2023-05-14T01:04:37.796Z,5.21
2023-05-14T01:07:09.089Z,5.21
2023-05-14T01:09:52.513Z,5.19
2023-05-14T01:12:37.370Z,5.13
2023-05-14T01:15:15.313Z,5.06
2023-05-14T01:17:46.649Z,4.99
2023-05-14T01:20:13.600Z,4.94
2023-05-14T01:22:40.429Z,4.92
2023-05-14T01:25:07.934Z,4.86
2023-05-14T01:27:50.203Z,4.82
2023-05-14T01:30:21.751Z,4.78
2023-05-14T01:32:51.728Z,4.74
2023-05-14T01:35:20.226Z,4.70
2023-05-14T01:37:48.533Z,4.66
2023-05-14T01:40:15.829Z,4.62
2023-05-14T01:42:43.917Z,4.61
2023-05-14T01:45:10.952Z,4.58
2023-05-14T01:47:37.855Z,4.59
2023-05-14T01:50:05.081Z,4.53
2023-05-14T01:52:31.785Z,4.48
2023-05-14T01:55:00.229Z,4.45
2023-05-14T01:57:27.122Z,4.43
2023-05-14T01:59:53.972Z,4.41
2023-05-14T02:02:20.832Z,4.39
2023-05-14T02:04:47.783Z,4.39
2023-05-14T02:07:14.865Z,4.37
2023-05-14T02:09:42.642Z,4.37
2023-05-14T02:12:11.183Z,4.35
2023-05-14T02:14:38.285Z,4.29
2023-05-14T02:17:05.295Z,4.26
2023-05-14T02:19:32.090Z,4.25
2023-05-14T02:22:00.372Z,4.21
2023-05-14T02:24:27.647Z,4.23
2023-05-14T02:26:54.448Z,4.23
2023-05-14T02:29:21.222Z,4.24
2023-05-14T02:31:48.173Z,4.22
2023-05-14T02:34:16.316Z,4.19
2023-05-14T02:36:43.048Z,4.14
2023-05-14T02:39:09.830Z,4.09
2023-05-14T02:41:36.734Z,4.04
2023-05-14T02:44:03.516Z,3.99
2023-05-14T02:46:35.160Z,3.96
2023-05-14T02:49:03.205Z,3.93
2023-05-14T02:51:29.932Z,3.91
2023-05-14T02:53:56.777Z,3.88
2023-05-14T02:56:23.544Z,3.82
2023-05-14T02:58:50.320Z,3.75
2023-05-14T03:01:18.872Z,3.69
2023-05-14T03:03:46.233Z,3.64
2023-05-14T03:06:13.530Z,3.61
2023-05-14T03:08:40.348Z,3.58
2023-05-14T03:11:08.282Z,3.61
2023-05-14T03:13:35.021Z,3.61
2023-05-14T03:16:01.825Z,3.61
2023-05-14T03:18:30.642Z,3.58
2023-05-14T03:20:57.570Z,3.56
2023-05-14T03:23:24.309Z,3.57
2023-05-14T03:25:52.670Z,3.61
2023-05-14T03:28:19.378Z,3.67
2023-05-14T03:30:46.331Z,3.72
2023-05-14T03:33:13.146Z,3.76
2023-05-14T03:35:39.884Z,3.83
2023-05-14T03:38:07.523Z,3.86
2023-05-14T03:40:34.577Z,3.88
2023-05-14T03:43:01.351Z,3.89
2023-05-14T03:45:30.423Z,3.93
2023-05-14T03:47:58.773Z,4.00
2023-05-14T03:50:26.232Z,4.11
2023-05-14T03:52:53.484Z,4.24
2023-05-14T03:55:20.935Z,4.42
2023-05-14T03:57:48.589Z,4.59
2023-05-14T04:00:15.752Z,4.74
2023-05-14T04:02:43.841Z,4.91
2023-05-14T04:05:10.929Z,5.04
2023-05-14T04:07:37.727Z,5.17
2023-05-14T04:10:05.803Z,5.33
2023-05-14T04:12:34.970Z,5.51
2023-05-14T04:15:02.656Z,5.69
2023-05-14T04:17:29.503Z,5.90
2023-05-14T04:19:56.906Z,6.08
2023-05-14T04:22:24.485Z,6.26
2023-05-14T04:24:51.722Z,6.42
2023-05-14T04:27:22.224Z,6.59
2023-05-14T04:29:49.819Z,6.76
2023-05-14T04:32:17.793Z,6.93
2023-05-14T04:34:44.714Z,7.12
2023-05-14T04:37:11.557Z,7.33
2023-05-14T04:39:38.443Z,7.55
2023-05-14T04:42:06.779Z,7.78
2023-05-14T04:44:34.871Z,8.09
2023-05-14T04:47:02.380Z,8.36
2023-05-14T04:49:29.530Z,8.69
2023-05-14T04:51:56.258Z,9.12
2023-05-14T04:54:23.103Z,9.58
2023-05-14T04:56:50.385Z,10.07
2023-05-14T04:59:17.169Z,10.61
2023-05-14T05:01:44.029Z,11.18
2023-05-14T05:04:10.876Z,11.70
2023-05-14T05:06:38.068Z,12.12
2023-05-14T05:09:04.837Z,12.46
2023-05-14T05:11:31.619Z,12.70
2023-05-14T05:13:58.400Z,12.93
2023-05-14T05:16:25.561Z,13.18
2023-05-14T05:18:52.566Z,13.39
2023-05-14T05:21:19.376Z,13.66
2023-05-14T05:23:46.216Z,13.92
2023-05-14T05:26:12.979Z,14.15
2023-05-14T05:28:39.697Z,14.33
2023-05-14T05:31:06.548Z,14.52
2023-05-14T05:33:34.588Z,14.72
2023-05-14T05:36:01.306Z,14.92
2023-05-14T05:38:28.162Z,15.08
2023-05-14T05:40:54.857Z,15.26
2023-05-14T05:43:21.618Z,15.44
2023-05-14T05:45:48.383Z,15.65
2023-05-14T05:48:15.127Z,16.02
2023-05-14T05:50:42.897Z,16.51
2023-05-14T05:53:09.690Z,17.06
2023-05-14T05:55:36.612Z,17.63
2023-05-14T05:58:03.514Z,18.27
2023-05-14T06:00:31.252Z,18.75
2023-05-14T06:02:58.048Z,19.12
2023-05-14T06:05:25.029Z,19.55
2023-05-14T06:07:53.637Z,19.97
2023-05-14T06:10:20.685Z,20.33
2023-05-14T06:12:47.803Z,20.67
2023-05-14T06:15:14.573Z,20.94
2023-05-14T06:17:41.569Z,21.14
2023-05-14T06:20:09.046Z,21.48
2023-05-14T06:22:35.917Z,21.93
2023-05-14T06:25:02.662Z,22.23
2023-05-14T06:27:29.995Z,22.62
2023-05-14T06:29:58.116Z,22.90
2023-05-14T06:32:24.906Z,23.21
2023-05-14T06:34:51.652Z,23.30
2023-05-14T06:37:18.424Z,23.13
2023-05-14T06:39:57.959Z,22.94
2023-05-14T06:42:25.003Z,22.89
2023-05-14T06:44:52.098Z,22.99
2023-05-14T06:47:18.847Z,23.09
2023-05-14T06:49:45.645Z,23.01
2023-05-14T06:52:12.396Z,23.02
2023-05-14T06:54:39.554Z,23.22
2023-05-14T06:57:06.333Z,23.38
2023-05-14T06:59:33.359Z,23.34
2023-05-14T07:02:00.153Z,23.40
2023-05-14T07:04:27.071Z,23.45
2023-05-14T07:06:54.009Z,23.60
2023-05-14T07:09:20.960Z,23.73
2023-05-14T07:11:48.278Z,23.81
2023-05-14T07:14:15.092Z,23.96
2023-05-14T07:16:42.788Z,24.10
2023-05-14T07:19:09.599Z,24.31
2023-05-14T07:21:36.440Z,24.49
2023-05-14T07:24:03.293Z,24.36
2023-05-14T07:26:30.497Z,24.67
2023-05-14T07:28:57.471Z,24.86
2023-05-14T07:31:24.266Z,24.43
2023-05-14T07:33:51.110Z,24.28
2023-05-14T07:36:19.146Z,24.15
2023-05-14T07:38:45.948Z,24.09
2023-05-14T07:41:12.763Z,24.02
2023-05-14T07:43:40.579Z,24.16
2023-05-14T07:46:07.459Z,24.30
2023-05-14T07:48:35.779Z,24.32
2023-05-14T07:51:02.597Z,24.46
2023-05-14T07:53:29.695Z,24.77
2023-05-14T07:55:56.475Z,24.79
2023-05-14T07:58:23.601Z,24.78
2023-05-14T08:00:50.628Z,24.73
2023-05-14T08:03:17.533Z,24.57
2023-05-14T08:05:44.972Z,24.69
2023-05-14T08:08:12.626Z,25.34
2023-05-14T08:10:39.411Z,25.74
2023-05-14T08:13:06.205Z,25.84
2023-05-14T08:15:32.944Z,26.02
2023-05-14T08:18:03.689Z,26.24
2023-05-14T08:20:31.197Z,26.55
2023-05-14T08:22:58.167Z,27.02
2023-05-14T08:25:25.120Z,27.32
2023-05-14T08:27:53.699Z,27.48
2023-05-14T08:30:21.863Z,27.19
2023-05-14T08:32:48.861Z,27.41
2023-05-14T08:35:16.192Z,27.93
2023-05-14T08:37:43.138Z,28.36
2023-05-14T08:40:10.477Z,28.46
2023-05-14T08:42:40.868Z,28.65
2023-05-14T08:45:15.612Z,29.13
2023-05-14T08:47:45.087Z,29.41
2023-05-14T08:50:12.224Z,29.90
2023-05-14T08:52:39.765Z,30.24
2023-05-14T08:55:07.977Z,30.29
2023-05-14T08:57:35.401Z,30.37
2023-05-14T09:00:08.668Z,30.22
2023-05-14T09:02:36.745Z,30.07
2023-05-14T09:05:04.250Z,29.82
2023-05-14T09:07:31.188Z,29.76
2023-05-14T09:09:58.886Z,29.90
2023-05-14T09:12:25.652Z,30.14
2023-05-14T09:14:52.472Z,30.03
2023-05-14T09:17:19.798Z,29.82
2023-05-14T09:19:49.152Z,29.44
2023-05-14T09:22:17.646Z,29.02
2023-05-14T09:24:44.887Z,28.65
2023-05-14T09:27:20.917Z,28.51
2023-05-14T09:29:48.215Z,28.30
2023-05-14T09:32:14.944Z,28.23
2023-05-14T09:34:42.361Z,28.26
2023-05-14T09:37:09.732Z,28.38
2023-05-14T09:39:38.288Z,28.30
2023-05-14T09:42:05.728Z,27.73
2023-05-14T09:44:32.772Z,27.35
2023-05-14T09:46:59.844Z,27.01
2023-05-14T09:49:26.780Z,26.66
2023-05-14T09:51:53.669Z,26.52
2023-05-14T09:54:20.498Z,26.44
2023-05-14T09:56:47.645Z,26.28
2023-05-14T09:59:14.440Z,26.20
2023-05-14T10:01:43.696Z,26.28
2023-05-14T10:04:11.884Z,26.33
2023-05-14T10:06:40.003Z,26.37
2023-05-14T10:09:13.191Z,26.39
2023-05-14T10:11:43.888Z,26.19
2023-05-14T10:14:18.720Z,26.02
2023-05-14T10:16:49.845Z,25.84
2023-05-14T10:19:18.605Z,25.66
2023-05-14T10:21:49.932Z,25.60
2023-05-14T10:24:18.279Z,25.51
2023-05-14T10:26:45.548Z,25.39
2023-05-14T10:29:13.059Z,25.32
2023-05-14T10:31:47.954Z,25.17
2023-05-14T10:34:45.786Z,25.03
2023-05-14T10:37:14.928Z,24.73
2023-05-14T10:39:43.709Z,24.51
2023-05-14T10:42:15.561Z,24.26
2023-05-14T10:44:48.689Z,24.16
2023-05-14T10:47:18.041Z,24.09
2023-05-14T10:49:46.154Z,24.01
2023-05-14T10:52:13.061Z,23.97
2023-05-14T10:54:40.627Z,23.87
2023-05-14T10:57:12.195Z,23.75
2023-05-14T10:59:42.248Z,23.70
2023-05-14T11:02:25.148Z,23.69
2023-05-14T11:05:24.029Z,23.63
2023-05-14T11:07:52.502Z,23.66
2023-05-14T11:10:22.105Z,23.77
2023-05-14T11:12:51.052Z,23.92
2023-05-14T11:15:21.236Z,23.97
2023-05-14T11:17:49.630Z,23.95
2023-05-14T11:20:17.524Z,24.04
2023-05-14T11:22:46.141Z,24.24
2023-05-14T11:25:14.810Z,24.30
2023-05-14T11:27:43.943Z,24.46
2023-05-14T11:30:20.094Z,24.50
2023-05-14T11:32:48.237Z,24.36
2023-05-14T11:35:15.593Z,24.40
2023-05-14T11:37:43.600Z,24.42
2023-05-14T11:40:16.948Z,24.37
2023-05-14T11:42:43.762Z,24.39
2023-05-14T11:45:13.226Z,24.33
2023-05-14T11:47:41.982Z,24.44
2023-05-14T11:50:09.854Z,24.79
2023-05-14T11:52:40.484Z,25.18
2023-05-14T11:55:11.994Z,25.54
2023-05-14T11:57:39.155Z,25.81
2023-05-14T12:00:09.249Z,26.10
2023-05-14T12:02:37.717Z,26.44
2023-05-14T12:05:07.363Z,26.67
2023-05-14T12:07:34.070Z,26.70
2023-05-14T12:10:03.460Z,26.72
2023-05-14T12:12:36.126Z,26.64
2023-05-14T12:15:10.351Z,26.59
2023-05-14T12:17:38.044Z,26.66
2023-05-14T12:20:08.334Z,26.77
2023-05-14T12:22:36.998Z,26.77
2023-05-14T12:25:04.254Z,26.63
2023-05-14T12:27:31.145Z,26.51
2023-05-14T12:30:19.049Z,26.42
2023-05-14T12:32:48.993Z,26.44
2023-05-14T12:35:16.148Z,26.52
2023-05-14T12:37:43.098Z,26.60
2023-05-14T12:40:10.371Z,26.80
2023-05-14T12:42:37.389Z,26.90
2023-05-14T12:45:21.790Z,26.86
2023-05-14T12:47:48.861Z,26.99
2023-05-14T12:50:16.577Z,27.08
2023-05-14T12:52:43.328Z,27.11
2023-05-14T12:55:10.173Z,27.23
2023-05-14T12:57:39.435Z,27.54
2023-05-14T13:00:08.433Z,27.97
2023-05-14T13:02:43.870Z,28.07
2023-05-14T13:05:12.693Z,28.03
2023-05-14T13:07:39.624Z,27.81
2023-05-14T13:10:07.135Z,27.50
2023-05-14T13:12:34.237Z,27.16
2023-05-14T13:15:01.152Z,27.04
2023-05-14T13:17:28.105Z,26.87
2023-05-14T13:19:54.916Z,26.70
2023-05-14T13:22:21.636Z,26.56
2023-05-14T13:24:48.388Z,26.49
2023-05-14T13:27:15.200Z,26.36
2023-05-14T13:29:42.327Z,26.20
2023-05-14T13:32:09.072Z,26.11
2023-05-14T13:34:36.368Z,26.04
2023-05-14T13:37:04.000Z,25.98
2023-05-14T13:39:30.926Z,25.91
2023-05-14T13:41:57.742Z,25.76
2023-05-14T13:44:24.524Z,25.67
2023-05-14T13:46:51.400Z,25.54
2023-05-14T13:49:18.666Z,25.44
2023-05-14T13:51:45.443Z,25.24
2023-05-14T13:54:12.245Z,25.10
2023-05-14T13:56:38.940Z,24.87
2023-05-14T13:59:06.036Z,24.71
2023-05-14T14:01:32.921Z,24.56
2023-05-14T14:03:59.763Z,24.39
2023-05-14T14:06:27.528Z,24.25
2023-05-14T14:08:54.464Z,24.13
2023-05-14T14:11:21.966Z,24.04
2023-05-14T14:13:48.798Z,23.94
2023-05-14T14:16:16.278Z,23.86
2023-05-14T14:18:43.494Z,23.84
2023-05-14T14:21:10.840Z,23.75
2023-05-14T14:23:37.647Z,23.58
2023-05-14T14:26:04.458Z,23.43
2023-05-14T14:28:31.435Z,23.35
2023-05-14T14:30:58.629Z,23.24
2023-05-14T14:33:25.771Z,23.10
2023-05-14T14:35:52.925Z,22.94
2023-05-14T14:38:19.776Z,22.78
2023-05-14T14:40:46.948Z,22.64
2023-05-14T14:43:13.742Z,22.48
2023-05-14T14:45:40.622Z,22.31
2023-05-14T14:48:26.904Z,22.16
2023-05-14T14:50:54.945Z,22.01
2023-05-14T14:53:23.187Z,21.87
2023-05-14T14:55:50.956Z,21.80
2023-05-14T14:58:19.382Z,21.76
2023-05-14T15:00:47.161Z,21.68
2023-05-14T15:03:15.257Z,21.59
2023-05-14T15:05:42.602Z,21.52
2023-05-14T15:08:09.820Z,21.47
2023-05-14T15:10:38.345Z,21.44
2023-05-14T15:13:06.289Z,21.42
2023-05-14T15:15:34.365Z,21.37
2023-05-14T15:18:02.049Z,21.30
2023-05-14T15:20:29.791Z,21.21
2023-05-14T15:22:56.558Z,21.19
2023-05-14T15:25:24.722Z,21.17
2023-05-14T15:27:51.713Z,21.14
2023-05-14T15:30:18.936Z,21.10
2023-05-14T15:32:46.765Z,21.07
2023-05-14T15:35:13.921Z,21.03
2023-05-14T15:37:44.286Z,20.99
2023-05-14T15:40:12.085Z,20.94
2023-05-14T15:42:42.154Z,20.88
2023-05-14T15:45:10.868Z,20.84
2023-05-14T15:47:44.626Z,20.78
2023-05-14T15:50:11.749Z,20.72
2023-05-14T15:52:39.390Z,20.67
2023-05-14T15:55:06.790Z,20.58
2023-05-14T15:57:34.497Z,20.50
2023-05-14T16:00:01.563Z,20.44
2023-05-14T16:02:33.373Z,20.39
2023-05-14T16:05:00.280Z,20.35
2023-05-14T16:07:27.076Z,20.26
2023-05-14T16:09:53.939Z,20.18
2023-05-14T16:12:20.890Z,20.12
2023-05-14T16:14:47.583Z,20.06
2023-05-14T16:17:14.448Z,20.00
2023-05-14T16:19:41.518Z,19.94
2023-05-14T16:22:08.282Z,19.88
2023-05-14T16:24:35.078Z,19.83
2023-05-14T16:27:01.836Z,19.78
2023-05-14T16:29:28.594Z,19.73
2023-05-14T16:31:55.513Z,19.70
2023-05-14T16:34:22.335Z,19.66
2023-05-14T16:36:49.201Z,19.63
2023-05-14T16:39:16.577Z,19.61
2023-05-14T16:41:43.298Z,19.59
2023-05-14T16:44:10.076Z,19.56
2023-05-14T16:46:36.927Z,19.52
2023-05-14T16:49:03.765Z,19.49
2023-05-14T16:51:30.679Z,19.45
2023-05-14T16:53:57.429Z,19.41
2023-05-14T16:56:24.218Z,19.36
2023-05-14T16:58:50.920Z,19.32
2023-05-14T17:01:17.645Z,19.25
2023-05-14T17:03:45.861Z,19.20
2023-05-14T17:06:12.689Z,19.14
2023-05-14T17:08:39.408Z,19.08
2023-05-14T17:11:06.262Z,19.04
2023-05-14T17:13:33.444Z,18.98
2023-05-14T17:16:00.933Z,18.92
2023-05-14T17:18:28.344Z,18.87
2023-05-14T17:20:55.377Z,18.81
2023-05-14T17:23:22.095Z,18.76
2023-05-14T17:25:48.954Z,18.71
2023-05-14T17:28:16.448Z,18.67
2023-05-14T17:30:43.181Z,18.61
2023-05-14T17:33:09.954Z,18.56
2023-05-14T17:35:37.361Z,18.52
2023-05-14T17:38:04.171Z,18.47
2023-05-14T17:40:30.919Z,18.41
2023-05-14T17:42:57.759Z,18.36
2023-05-14T17:45:24.990Z,18.28
2023-05-14T17:47:52.444Z,18.20
2023-05-14T17:50:20.183Z,18.08
2023-05-14T17:52:47.652Z,17.90
2023-05-14T17:55:14.577Z,17.66
2023-05-14T17:57:42.280Z,17.44
2023-05-14T18:00:09.607Z,17.24
2023-05-14T18:02:37.826Z,17.03
2023-05-14T18:05:05.534Z,16.83
2023-05-14T18:07:32.345Z,16.69
2023-05-14T18:09:59.350Z,16.48
2023-05-14T18:12:26.921Z,16.24
2023-05-14T18:14:54.039Z,16.02
2023-05-14T18:17:21.059Z,15.83
2023-05-14T18:19:48.304Z,15.64
2023-05-14T18:22:16.103Z,15.45
2023-05-14T18:24:44.332Z,15.32
2023-05-14T18:27:11.336Z,15.23
2023-05-14T18:29:38.357Z,15.12
2023-05-14T18:32:05.591Z,15.05
2023-05-14T18:34:35.115Z,14.97
2023-05-14T18:37:01.853Z,14.92
2023-05-14T18:39:28.558Z,14.88
2023-05-14T18:41:56.586Z,14.83
2023-05-14T18:44:23.691Z,14.80
2023-05-14T18:46:56.568Z,14.79
2023-05-14T18:49:23.399Z,14.80
2023-05-14T18:51:50.157Z,14.82
2023-05-14T18:54:16.942Z,14.87
2023-05-14T18:56:47.482Z,14.89
2023-05-14T18:59:14.671Z,14.88
2023-05-14T19:01:41.533Z,14.89
2023-05-14T19:04:08.628Z,14.88
2023-05-14T19:06:36.225Z,14.84
2023-05-14T19:09:04.352Z,14.83
2023-05-14T19:11:46.648Z,14.82
2023-05-14T19:14:13.522Z,14.82
2023-05-14T19:16:41.022Z,14.83
2023-05-14T19:19:08.753Z,14.82
2023-05-14T19:21:35.693Z,14.80
2023-05-14T19:24:02.537Z,14.79
2023-05-14T19:26:29.419Z,14.75
2023-05-14T19:28:58.601Z,14.71
2023-05-14T19:31:26.531Z,14.68
2023-05-14T19:33:54.176Z,14.66
2023-05-14T19:36:23.552Z,14.66
2023-05-14T19:38:50.762Z,14.65
2023-05-14T19:41:17.509Z,14.64
2023-05-14T19:43:44.313Z,14.63
2023-05-14T19:46:11.156Z,14.61
2023-05-14T19:48:38.880Z,14.59
2023-05-14T19:51:05.652Z,14.56
2023-05-14T19:53:32.412Z,14.51
2023-05-14T19:56:00.135Z,14.50
2023-05-14T19:58:26.868Z,14.53
2023-05-14T20:00:56.779Z,14.56
2023-05-14T20:03:26.134Z,14.55
2023-05-14T20:05:54.096Z,14.55
2023-05-14T20:08:26.504Z,14.55
2023-05-14T20:10:53.255Z,14.54
2023-05-14T20:13:20.141Z,14.51
2023-05-14T20:15:47.188Z,14.49
2023-05-14T20:18:14.336Z,14.50
2023-05-14T20:20:42.823Z,14.51
2023-05-14T20:23:09.801Z,14.49
2023-05-14T20:25:36.582Z,14.48
2023-05-14T20:28:04.479Z,14.47
2023-05-14T20:30:31.257Z,14.47
2023-05-14T20:32:58.306Z,14.48
2023-05-14T20:35:25.266Z,14.50
2023-05-14T20:37:52.097Z,14.52
2023-05-14T20:40:19.323Z,14.53
2023-05-14T20:42:46.092Z,14.54
2023-05-14T20:45:12.982Z,14.53
2023-05-14T20:47:40.473Z,14.53
2023-05-14T20:50:07.772Z,14.53
2023-05-14T20:52:34.594Z,14.53
2023-05-14T20:55:04.585Z,14.55
2023-05-14T20:57:31.939Z,14.56
2023-05-14T20:59:58.655Z,14.56
2023-05-14T21:02:25.713Z,14.54
2023-05-14T21:04:52.848Z,14.52
2023-05-14T21:07:19.756Z,14.50
2023-05-14T21:09:51.012Z,14.49
2023-05-14T21:12:19.284Z,14.48
2023-05-14T21:14:46.356Z,14.44
2023-05-14T21:17:13.100Z,14.39
2023-05-14T21:19:39.846Z,14.34
2023-05-14T21:22:06.893Z,14.29
2023-05-14T21:24:33.614Z,14.25
2023-05-14T21:27:00.449Z,14.21
2023-05-14T21:29:27.389Z,14.18
2023-05-14T21:31:54.193Z,14.15
2023-05-14T21:34:20.995Z,14.12
2023-05-14T21:36:47.951Z,14.09
2023-05-14T21:39:14.972Z,14.04
2023-05-14T21:41:41.736Z,14.03
2023-05-14T21:44:08.529Z,14.01
2023-05-14T21:46:37.694Z,14.02
2023-05-14T21:49:04.636Z,14.02
2023-05-14T21:51:32.179Z,13.99
2023-05-14T21:53:59.279Z,13.99
2023-05-14T21:56:26.435Z,13.99
2023-05-14T21:58:55.537Z,13.98
2023-05-14T22:01:22.463Z,13.97
2023-05-14T22:03:49.262Z,13.98
2023-05-14T22:06:16.243Z,13.96
2023-05-14T22:08:43.065Z,13.95
2023-05-14T22:11:09.753Z,13.92
2023-05-14T22:13:40.853Z,13.88
2023-05-14T22:16:13.287Z,13.85
2023-05-14T22:18:40.963Z,13.82
2023-05-14T22:21:07.840Z,13.78
2023-05-14T22:23:34.667Z,13.75
2023-05-14T22:26:01.675Z,13.73
2023-05-14T22:28:28.512Z,13.69
2023-05-14T22:30:56.569Z,13.68
2023-05-14T22:33:23.440Z,13.63
2023-05-14T22:35:50.631Z,13.61
2023-05-14T22:38:17.533Z,13.62
2023-05-14T22:40:44.244Z,13.63
2023-05-14T22:43:10.946Z,13.63
2023-05-14T22:45:37.693Z,13.59
2023-05-14T22:48:04.559Z,13.52
2023-05-14T22:50:31.427Z,13.45
2023-05-14T22:52:58.186Z,13.40
2023-05-14T22:55:25.120Z,13.38
2023-05-14T22:57:52.180Z,13.35
2023-05-14T23:00:18.893Z,13.29
2023-05-14T23:02:45.838Z,13.24
2023-05-14T23:05:12.630Z,13.19
2023-05-14T23:07:39.620Z,13.14
2023-05-14T23:10:06.908Z,13.12
2023-05-14T23:12:33.723Z,13.12
2023-05-14T23:15:00.510Z,13.13
2023-05-14T23:17:27.479Z,13.13
2023-05-14T23:19:54.538Z,13.12
2023-05-14T23:22:21.297Z,13.10
2023-05-14T23:24:47.996Z,13.06
2023-05-14T23:27:14.872Z,13.02
2023-05-14T23:29:41.696Z,12.99
2023-05-14T23:32:08.634Z,12.97
2023-05-14T23:34:35.548Z,12.94
2023-05-14T23:37:02.572Z,12.94
2023-05-14T23:39:29.384Z,12.91
2023-05-14T23:41:56.093Z,12.89
2023-05-14T23:44:23.670Z,12.87
2023-05-14T23:46:50.786Z,12.82
2023-05-14T23:49:17.573Z,12.75
2023-05-14T23:51:44.391Z,12.73
2023-05-14T23:54:11.795Z,12.72
2023-05-14T23:56:38.859Z,12.70
2023-05-14T23:59:06.528Z,12.66
